sensor_id;sensor_type;location;lat;lon;timestamp;P1;durP1;ratioP1;P2;durP2;ratioP2
45274;SDS011;31019;43.780;25.948;2024-01-15T00:02:09;35.67;;;33.03;;
45274;SDS011;31019;43.780;25.948;2024-01-15T00:04:37;35.15;;;32.92;;
45274;SDS011;31019;43.780;25.948;2024-01-15T00:07:04;46.75;;;43.28;;
45274;SDS011;31019;43.780;25.948;2024-01-15T00:09:31;37.58;;;35.08;;
45274;SDS011;31019;43.780;25.948;2024-01-15T00:11:59;33.38;;;31.08;;
45274;SDS011;31019;43.780;25.948;2024-01-15T00:14:26;37.00;;;34.50;;
45274;SDS011;31019;43.780;25.948;2024-01-15T00:16:54;35.55;;;33.22;;
45274;SDS011;31019;43.780;25.948;2024-01-15T00:19:21;40.10;;;37.40;;
45274;SDS011;31019;43.780;25.948;2024-01-15T00:21:49;32.40;;;30.23;;
45274;SDS011;31019;43.780;25.948;2024-01-15T00:24:16;28.55;;;25.60;;
45274;SDS011;31019;43.780;25.948;2024-01-15T00:26:43;34.33;;;31.92;;
45274;SDS011;31019;43.780;25.948;2024-01-15T00:29:11;36.28;;;33.78;;
45274;SDS011;31019;43.780;25.948;2024-01-15T00:31:38;30.88;;;28.85;;
45274;SDS011;31019;43.780;25.948;2024-01-15T00:34:05;31.45;;;29.27;;
45274;SDS011;31019;43.780;25.948;2024-01-15T00:36:32;32.78;;;30.58;;
45274;SDS011;31019;43.780;25.948;2024-01-15T00:38:58;34.75;;;32.35;;
45274;SDS011;31019;43.780;25.948;2024-01-15T00:41:25;30.98;;;28.88;;
45274;SDS011;31019;43.780;25.948;2024-01-15T00:43:53;33.83;;;31.63;;
45274;SDS011;31019;43.780;25.948;2024-01-15T00:46:21;31.02;;;28.92;;
45274;SDS011;31019;43.780;25.948;2024-01-15T00:48:48;28.55;;;26.55;;
45274;SDS011;31019;43.780;25.948;2024-01-15T00:51:15;32.35;;;30.25;;
45274;SDS011;31019;43.780;25.948;2024-01-15T00:53:42;31.35;;;29.27;;
45274;SDS011;31019;43.780;25.948;2024-01-15T00:56:09;31.17;;;29.10;;
45274;SDS011;31019;43.780;25.948;2024-01-15T00:58:38;28.25;;;26.45;;
45274;SDS011;31019;43.780;25.948;2024-01-15T01:01:05;29.52;;;27.63;;
45274;SDS011;31019;43.780;25.948;2024-01-15T01:03:34;33.42;;;31.42;;
45274;SDS011;31019;43.780;25.948;2024-01-15T01:06:00;36.00;;;33.90;;
45274;SDS011;31019;43.780;25.948;2024-01-15T01:08:28;32.95;;;30.85;;
45274;SDS011;31019;43.780;25.948;2024-01-15T01:10:55;28.77;;;26.88;;
45274;SDS011;31019;43.780;25.948;2024-01-15T01:13:22;30.75;;;28.75;;
45274;SDS011;31019;43.780;25.948;2024-01-15T01:15:49;35.33;;;33.13;;
45274;SDS011;31019;43.780;25.948;2024-01-15T01:18:16;38.67;;;36.25;;
45274;SDS011;31019;43.780;25.948;2024-01-15T01:20:44;32.70;;;30.50;;
45274;SDS011;31019;43.780;25.948;2024-01-15T01:23:11;31.13;;;28.77;;
45274;SDS011;31019;43.780;25.948;2024-01-15T01:25:38;30.17;;;28.27;;
45274;SDS011;31019;43.780;25.948;2024-01-15T01:28:05;28.55;;;26.58;;
45274;SDS011;31019;43.780;25.948;2024-01-15T01:30:32;27.70;;;25.80;;
45274;SDS011;31019;43.780;25.948;2024-01-15T01:32:59;29.65;;;27.75;;
45274;SDS011;31019;43.780;25.948;2024-01-15T01:35:25;32.60;;;30.55;;
45274;SDS011;31019;43.780;25.948;2024-01-15T01:37:54;30.00;;;28.10;;
45274;SDS011;31019;43.780;25.948;2024-01-15T01:40:21;26.75;;;24.80;;
45274;SDS011;31019;43.780;25.948;2024-01-15T01:42:47;24.98;;;23.20;;
45274;SDS011;31019;43.780;25.948;2024-01-15T01:45:14;26.95;;;25.05;;
45274;SDS011;31019;43.780;25.948;2024-01-15T01:47:41;35.83;;;33.53;;
45274;SDS011;31019;43.780;25.948;2024-01-15T01:50:08;32.55;;;30.35;;
45274;SDS011;31019;43.780;25.948;2024-01-15T01:52:36;28.67;;;26.58;;
45274;SDS011;31019;43.780;25.948;2024-01-15T01:55:04;27.00;;;24.75;;
45274;SDS011;31019;43.780;25.948;2024-01-15T01:57:33;26.58;;;24.70;;
45274;SDS011;31019;43.780;25.948;2024-01-15T02:00:01;27.75;;;25.90;;
45274;SDS011;31019;43.780;25.948;2024-01-15T02:02:30;35.30;;;33.20;;
45274;SDS011;31019;43.780;25.948;2024-01-15T02:04:57;27.40;;;25.50;;
45274;SDS011;31019;43.780;25.948;2024-01-15T02:07:24;26.77;;;24.77;;
45274;SDS011;31019;43.780;25.948;2024-01-15T02:09:51;31.85;;;29.75;;
45274;SDS011;31019;43.780;25.948;2024-01-15T02:12:20;31.23;;;29.13;;
45274;SDS011;31019;43.780;25.948;2024-01-15T02:14:47;30.80;;;28.70;;
45274;SDS011;31019;43.780;25.948;2024-01-15T02:17:13;29.35;;;27.45;;
45274;SDS011;31019;43.780;25.948;2024-01-15T02:19:40;30.58;;;28.30;;
45274;SDS011;31019;43.780;25.948;2024-01-15T02:22:08;29.27;;;27.27;;
45274;SDS011;31019;43.780;25.948;2024-01-15T02:24:37;29.58;;;27.67;;
45274;SDS011;31019;43.780;25.948;2024-01-15T02:27:04;29.50;;;27.67;;
45274;SDS011;31019;43.780;25.948;2024-01-15T02:29:31;31.48;;;29.48;;
45274;SDS011;31019;43.780;25.948;2024-01-15T02:31:58;27.42;;;25.63;;
45274;SDS011;31019;43.780;25.948;2024-01-15T02:34:25;29.85;;;27.85;;
45274;SDS011;31019;43.780;25.948;2024-01-15T02:36:51;25.98;;;24.27;;
45274;SDS011;31019;43.780;25.948;2024-01-15T02:39:18;25.45;;;23.85;;
45274;SDS011;31019;43.780;25.948;2024-01-15T02:41:46;25.50;;;23.70;;
45274;SDS011;31019;43.780;25.948;2024-01-15T02:44:13;36.65;;;34.45;;
45274;SDS011;31019;43.780;25.948;2024-01-15T02:46:40;32.40;;;30.40;;
45274;SDS011;31019;43.780;25.948;2024-01-15T02:49:07;27.52;;;25.73;;
45274;SDS011;31019;43.780;25.948;2024-01-15T02:51:34;31.73;;;29.45;;
45274;SDS011;31019;43.780;25.948;2024-01-15T02:54:00;27.80;;;26.00;;
45274;SDS011;31019;43.780;25.948;2024-01-15T02:56:27;27.52;;;25.73;;
45274;SDS011;31019;43.780;25.948;2024-01-15T02:58:56;31.75;;;29.85;;
45274;SDS011;31019;43.780;25.948;2024-01-15T03:01:23;27.25;;;25.55;;
45274;SDS011;31019;43.780;25.948;2024-01-15T03:03:49;27.48;;;25.77;;
45274;SDS011;31019;43.780;25.948;2024-01-15T03:06:16;30.27;;;28.45;;
45274;SDS011;31019;43.780;25.948;2024-01-15T03:08:42;30.30;;;28.20;;
45274;SDS011;31019;43.780;25.948;2024-01-15T03:11:09;27.48;;;25.77;;
45274;SDS011;31019;43.780;25.948;2024-01-15T03:13:36;30.15;;;28.45;;
45274;SDS011;31019;43.780;25.948;2024-01-15T03:16:05;28.52;;;26.92;;
45274;SDS011;31019;43.780;25.948;2024-01-15T03:18:32;37.13;;;35.22;;
45274;SDS011;31019;43.780;25.948;2024-01-15T03:20:59;31.30;;;29.67;;
45274;SDS011;31019;43.780;25.948;2024-01-15T03:23:27;27.27;;;25.67;;
45274;SDS011;31019;43.780;25.948;2024-01-15T03:25:54;28.75;;;27.15;;
45274;SDS011;31019;43.780;25.948;2024-01-15T03:28:20;29.55;;;27.95;;
45274;SDS011;31019;43.780;25.948;2024-01-15T03:30:47;24.17;;;22.67;;
45274;SDS011;31019;43.780;25.948;2024-01-15T03:33:16;27.45;;;25.75;;
45274;SDS011;31019;43.780;25.948;2024-01-15T03:35:42;27.27;;;25.58;;
45274;SDS011;31019;43.780;25.948;2024-01-15T03:38:09;33.88;;;31.98;;
45274;SDS011;31019;43.780;25.948;2024-01-15T03:40:36;33.72;;;31.60;;
45274;SDS011;31019;43.780;25.948;2024-01-15T03:43:03;29.52;;;27.73;;
45274;SDS011;31019;43.780;25.948;2024-01-15T03:45:30;25.80;;;24.00;;
45274;SDS011;31019;43.780;25.948;2024-01-15T03:47:57;27.35;;;25.45;;
45274;SDS011;31019;43.780;25.948;2024-01-15T03:50:25;31.55;;;29.55;;
45274;SDS011;31019;43.780;25.948;2024-01-15T03:52:52;29.15;;;27.35;;
45274;SDS011;31019;43.780;25.948;2024-01-15T03:55:19;26.45;;;24.75;;
45274;SDS011;31019;43.780;25.948;2024-01-15T03:57:46;25.83;;;24.23;;
45274;SDS011;31019;43.780;25.948;2024-01-15T04:00:13;24.55;;;22.95;;
45274;SDS011;31019;43.780;25.948;2024-01-15T04:02:42;26.67;;;24.88;;
45274;SDS011;31019;43.780;25.948;2024-01-15T04:05:11;34.30;;;32.30;;
45274;SDS011;31019;43.780;25.948;2024-01-15T04:07:41;28.88;;;27.08;;
45274;SDS011;31019;43.780;25.948;2024-01-15T04:10:08;24.90;;;23.10;;
45274;SDS011;31019;43.780;25.948;2024-01-15T04:12:35;26.70;;;24.88;;
45274;SDS011;31019;43.780;25.948;2024-01-15T04:15:03;24.55;;;22.75;;
45274;SDS011;31019;43.780;25.948;2024-01-15T04:17:30;27.02;;;25.13;;
45274;SDS011;31019;43.780;25.948;2024-01-15T04:19:57;27.90;;;26.02;;
45274;SDS011;31019;43.780;25.948;2024-01-15T04:22:24;25.58;;;23.88;;
45274;SDS011;31019;43.780;25.948;2024-01-15T04:24:53;24.55;;;22.85;;
45274;SDS011;31019;43.780;25.948;2024-01-15T04:27:20;24.90;;;23.20;;
45274;SDS011;31019;43.780;25.948;2024-01-15T04:29:46;26.05;;;24.15;;
45274;SDS011;31019;43.780;25.948;2024-01-15T04:32:13;26.40;;;24.70;;
45274;SDS011;31019;43.780;25.948;2024-01-15T04:34:40;30.00;;;28.20;;
45274;SDS011;31019;43.780;25.948;2024-01-15T04:37:07;30.38;;;28.48;;
45274;SDS011;31019;43.780;25.948;2024-01-15T04:39:34;27.10;;;25.50;;
45274;SDS011;31019;43.780;25.948;2024-01-15T04:42:02;24.83;;;22.40;;
45274;SDS011;31019;43.780;25.948;2024-01-15T04:44:30;22.58;;;20.40;;
45274;SDS011;31019;43.780;25.948;2024-01-15T04:46:57;23.10;;;20.70;;
45274;SDS011;31019;43.780;25.948;2024-01-15T04:49:23;38.97;;;36.42;;
45274;SDS011;31019;43.780;25.948;2024-01-15T04:51:52;38.42;;;36.22;;
45274;SDS011;31019;43.780;25.948;2024-01-15T04:54:19;33.15;;;31.17;;
45274;SDS011;31019;43.780;25.948;2024-01-15T04:56:46;27.40;;;25.25;;
45274;SDS011;31019;43.780;25.948;2024-01-15T04:59:14;36.50;;;34.40;;
45274;SDS011;31019;43.780;25.948;2024-01-15T05:01:41;33.10;;;30.35;;
45274;SDS011;31019;43.780;25.948;2024-01-15T05:04:09;28.63;;;25.90;;
45274;SDS011;31019;43.780;25.948;2024-01-15T05:06:36;40.58;;;36.63;;
45274;SDS011;31019;43.780;25.948;2024-01-15T05:09:03;52.17;;;46.60;;
45274;SDS011;31019;43.780;25.948;2024-01-15T05:11:30;32.00;;;29.10;;
45274;SDS011;31019;43.780;25.948;2024-01-15T05:13:57;34.80;;;31.88;;
45274;SDS011;31019;43.780;25.948;2024-01-15T05:16:25;33.90;;;31.10;;
45274;SDS011;31019;43.780;25.948;2024-01-15T05:18:52;35.40;;;33.20;;
45274;SDS011;31019;43.780;25.948;2024-01-15T05:21:19;28.17;;;26.38;;
45274;SDS011;31019;43.780;25.948;2024-01-15T05:23:46;23.13;;;21.42;;
45274;SDS011;31019;43.780;25.948;2024-01-15T05:26:13;23.80;;;22.10;;
45274;SDS011;31019;43.780;25.948;2024-01-15T05:28:40;24.65;;;23.05;;
45274;SDS011;31019;43.780;25.948;2024-01-15T05:31:10;23.95;;;22.30;;
45274;SDS011;31019;43.780;25.948;2024-01-15T05:33:38;21.60;;;20.20;;
45274;SDS011;31019;43.780;25.948;2024-01-15T05:36:05;23.33;;;21.83;;
45274;SDS011;31019;43.780;25.948;2024-01-15T05:38:32;23.00;;;21.60;;
45274;SDS011;31019;43.780;25.948;2024-01-15T05:40:59;20.35;;;19.15;;
45274;SDS011;31019;43.780;25.948;2024-01-15T05:43:26;21.80;;;20.40;;
45274;SDS011;31019;43.780;25.948;2024-01-15T05:45:53;20.73;;;19.33;;
45274;SDS011;31019;43.780;25.948;2024-01-15T05:48:20;21.35;;;19.75;;
45274;SDS011;31019;43.780;25.948;2024-01-15T05:50:48;22.73;;;21.23;;
45274;SDS011;31019;43.780;25.948;2024-01-15T05:53:15;19.77;;;18.63;;
45274;SDS011;31019;43.780;25.948;2024-01-15T05:55:42;20.75;;;19.35;;
45274;SDS011;31019;43.780;25.948;2024-01-15T05:58:09;20.65;;;19.25;;
45274;SDS011;31019;43.780;25.948;2024-01-15T06:00:42;21.85;;;20.45;;
45274;SDS011;31019;43.780;25.948;2024-01-15T06:03:11;22.88;;;20.95;;
45274;SDS011;31019;43.780;25.948;2024-01-15T06:05:38;19.80;;;18.50;;
45274;SDS011;31019;43.780;25.948;2024-01-15T06:08:06;21.23;;;19.25;;
45274;SDS011;31019;43.780;25.948;2024-01-15T06:10:33;19.95;;;18.85;;
45274;SDS011;31019;43.780;25.948;2024-01-15T06:13:00;20.38;;;19.17;;
45274;SDS011;31019;43.780;25.948;2024-01-15T06:15:27;19.65;;;18.45;;
45274;SDS011;31019;43.780;25.948;2024-01-15T06:17:53;19.40;;;18.20;;
45274;SDS011;31019;43.780;25.948;2024-01-15T06:20:20;20.05;;;18.85;;
45274;SDS011;31019;43.780;25.948;2024-01-15T06:22:47;22.35;;;20.95;;
45274;SDS011;31019;43.780;25.948;2024-01-15T06:25:18;22.50;;;21.00;;
45274;SDS011;31019;43.780;25.948;2024-01-15T06:27:45;21.50;;;20.10;;
45274;SDS011;31019;43.780;25.948;2024-01-15T06:30:12;21.40;;;20.10;;
45274;SDS011;31019;43.780;25.948;2024-01-15T06:32:39;23.73;;;22.33;;
45274;SDS011;31019;43.780;25.948;2024-01-15T06:35:06;26.95;;;25.13;;
45274;SDS011;31019;43.780;25.948;2024-01-15T06:37:35;22.20;;;20.80;;
45274;SDS011;31019;43.780;25.948;2024-01-15T06:40:03;22.27;;;20.88;;
45274;SDS011;31019;43.780;25.948;2024-01-15T06:42:32;23.20;;;21.70;;
45274;SDS011;31019;43.780;25.948;2024-01-15T06:44:59;24.92;;;23.25;;
45274;SDS011;31019;43.780;25.948;2024-01-15T06:47:25;27.42;;;25.73;;
45274;SDS011;31019;43.780;25.948;2024-01-15T06:49:52;28.80;;;26.67;;
45274;SDS011;31019;43.780;25.948;2024-01-15T06:52:20;26.38;;;24.77;;
45274;SDS011;31019;43.780;25.948;2024-01-15T06:54:46;30.50;;;27.67;;
45274;SDS011;31019;43.780;25.948;2024-01-15T06:57:13;33.47;;;31.48;;
45274;SDS011;31019;43.780;25.948;2024-01-15T06:59:42;32.88;;;30.52;;
45274;SDS011;31019;43.780;25.948;2024-01-15T07:02:08;28.92;;;26.83;;
45274;SDS011;31019;43.780;25.948;2024-01-15T07:04:36;31.73;;;29.38;;
45274;SDS011;31019;43.780;25.948;2024-01-15T07:07:03;38.97;;;29.50;;
45274;SDS011;31019;43.780;25.948;2024-01-15T07:09:30;29.42;;;27.52;;
45274;SDS011;31019;43.780;25.948;2024-01-15T07:11:56;36.38;;;34.08;;
45274;SDS011;31019;43.780;25.948;2024-01-15T07:14:24;32.13;;;30.23;;
45274;SDS011;31019;43.780;25.948;2024-01-15T07:16:53;32.22;;;30.33;;
45274;SDS011;31019;43.780;25.948;2024-01-15T07:19:19;37.83;;;35.30;;
45274;SDS011;31019;43.780;25.948;2024-01-15T07:21:46;40.00;;;37.60;;
45274;SDS011;31019;43.780;25.948;2024-01-15T07:24:13;40.47;;;37.88;;
45274;SDS011;31019;43.780;25.948;2024-01-15T07:26:40;37.35;;;35.15;;
45274;SDS011;31019;43.780;25.948;2024-01-15T07:29:07;36.03;;;33.72;;
45274;SDS011;31019;43.780;25.948;2024-01-15T07:31:34;31.85;;;29.92;;
45274;SDS011;31019;43.780;25.948;2024-01-15T07:34:02;36.20;;;34.20;;
45274;SDS011;31019;43.780;25.948;2024-01-15T07:36:29;42.05;;;39.45;;
45274;SDS011;31019;43.780;25.948;2024-01-15T07:38:56;45.50;;;42.63;;
45274;SDS011;31019;43.780;25.948;2024-01-15T07:41:23;50.17;;;46.97;;
45274;SDS011;31019;43.780;25.948;2024-01-15T07:43:50;43.42;;;40.47;;
45274;SDS011;31019;43.780;25.948;2024-01-15T07:46:17;39.22;;;36.75;;
45274;SDS011;31019;43.780;25.948;2024-01-15T07:48:44;43.65;;;41.10;;
45274;SDS011;31019;43.780;25.948;2024-01-15T07:51:12;45.08;;;42.25;;
45274;SDS011;31019;43.780;25.948;2024-01-15T07:53:39;48.38;;;45.17;;
45274;SDS011;31019;43.780;25.948;2024-01-15T07:56:06;47.88;;;45.15;;
45274;SDS011;31019;43.780;25.948;2024-01-15T07:58:33;39.47;;;37.05;;
45274;SDS011;31019;43.780;25.948;2024-01-15T08:01:00;44.67;;;41.90;;
45274;SDS011;31019;43.780;25.948;2024-01-15T08:03:26;59.72;;;56.13;;
45274;SDS011;31019;43.780;25.948;2024-01-15T08:05:53;59.50;;;55.63;;
45274;SDS011;31019;43.780;25.948;2024-01-15T08:08:24;53.28;;;50.05;;
45274;SDS011;31019;43.780;25.948;2024-01-15T08:10:51;55.67;;;52.47;;
45274;SDS011;31019;43.780;25.948;2024-01-15T08:13:18;57.30;;;53.90;;
45274;SDS011;31019;43.780;25.948;2024-01-15T08:15:45;48.00;;;45.15;;
45274;SDS011;31019;43.780;25.948;2024-01-15T08:18:12;52.80;;;49.55;;
45274;SDS011;31019;43.780;25.948;2024-01-15T08:20:41;63.63;;;60.03;;
45274;SDS011;31019;43.780;25.948;2024-01-15T08:23:08;57.70;;;54.40;;
45274;SDS011;31019;43.780;25.948;2024-01-15T08:25:37;54.13;;;50.92;;
45274;SDS011;31019;43.780;25.948;2024-01-15T08:28:04;38.80;;;36.33;;
45274;SDS011;31019;43.780;25.948;2024-01-15T08:30:31;44.40;;;41.70;;
45274;SDS011;31019;43.780;25.948;2024-01-15T08:32:58;60.85;;;57.20;;
45274;SDS011;31019;43.780;25.948;2024-01-15T08:35:25;61.45;;;57.75;;
45274;SDS011;31019;43.780;25.948;2024-01-15T08:37:52;60.55;;;56.85;;
45274;SDS011;31019;43.780;25.948;2024-01-15T08:40:19;60.15;;;56.75;;
45274;SDS011;31019;43.780;25.948;2024-01-15T08:42:48;47.58;;;44.88;;
45274;SDS011;31019;43.780;25.948;2024-01-15T08:45:16;43.38;;;40.67;;
45274;SDS011;31019;43.780;25.948;2024-01-15T08:47:44;59.47;;;56.03;;
45274;SDS011;31019;43.780;25.948;2024-01-15T08:50:11;61.90;;;58.20;;
45274;SDS011;31019;43.780;25.948;2024-01-15T08:52:41;62.80;;;59.20;;
45274;SDS011;31019;43.780;25.948;2024-01-15T08:55:08;54.25;;;51.05;;
45274;SDS011;31019;43.780;25.948;2024-01-15T08:57:38;55.50;;;52.25;;
45274;SDS011;31019;43.780;25.948;2024-01-15T09:00:07;51.78;;;48.88;;
45274;SDS011;31019;43.780;25.948;2024-01-15T09:02:36;59.22;;;55.85;;
45274;SDS011;31019;43.780;25.948;2024-01-15T09:05:03;47.00;;;43.72;;
45274;SDS011;31019;43.780;25.948;2024-01-15T09:07:30;49.00;;;46.20;;
45274;SDS011;31019;43.780;25.948;2024-01-15T09:09:57;50.88;;;47.88;;
45274;SDS011;31019;43.780;25.948;2024-01-15T09:12:25;56.88;;;53.38;;
45274;SDS011;31019;43.780;25.948;2024-01-15T09:14:51;49.10;;;46.17;;
45274;SDS011;31019;43.780;25.948;2024-01-15T09:17:20;59.80;;;56.30;;
45274;SDS011;31019;43.780;25.948;2024-01-15T09:19:48;50.58;;;47.78;;
45274;SDS011;31019;43.780;25.948;2024-01-15T09:22:15;55.03;;;51.83;;
45274;SDS011;31019;43.780;25.948;2024-01-15T09:24:43;57.15;;;53.70;;
45274;SDS011;31019;43.780;25.948;2024-01-15T09:27:10;56.22;;;52.92;;
45274;SDS011;31019;43.780;25.948;2024-01-15T09:29:37;58.15;;;54.85;;
45274;SDS011;31019;43.780;25.948;2024-01-15T09:32:06;56.28;;;53.00;;
45274;SDS011;31019;43.780;25.948;2024-01-15T09:34:34;52.35;;;49.35;;
45274;SDS011;31019;43.780;25.948;2024-01-15T09:37:01;51.58;;;48.53;;
45274;SDS011;31019;43.780;25.948;2024-01-15T09:39:29;61.90;;;58.10;;
45274;SDS011;31019;43.780;25.948;2024-01-15T09:41:57;59.70;;;56.10;;
45274;SDS011;31019;43.780;25.948;2024-01-15T09:44:24;66.60;;;62.67;;
45274;SDS011;31019;43.780;25.948;2024-01-15T09:46:53;50.30;;;47.40;;
45274;SDS011;31019;43.780;25.948;2024-01-15T09:49:21;46.35;;;43.65;;
45274;SDS011;31019;43.780;25.948;2024-01-15T09:51:49;48.78;;;44.88;;
45274;SDS011;31019;43.780;25.948;2024-01-15T09:54:17;35.75;;;33.55;;
45274;SDS011;31019;43.780;25.948;2024-01-15T09:56:44;36.17;;;34.05;;
45274;SDS011;31019;43.780;25.948;2024-01-15T09:59:12;56.60;;;53.40;;
45274;SDS011;31019;43.780;25.948;2024-01-15T10:01:41;64.40;;;60.80;;
45274;SDS011;31019;43.780;25.948;2024-01-15T10:04:12;65.68;;;61.88;;
45274;SDS011;31019;43.780;25.948;2024-01-15T10:06:39;67.93;;;64.03;;
45274;SDS011;31019;43.780;25.948;2024-01-15T10:09:13;56.28;;;52.90;;
45274;SDS011;31019;43.780;25.948;2024-01-15T10:11:40;47.38;;;44.58;;
45274;SDS011;31019;43.780;25.948;2024-01-15T10:14:08;50.20;;;47.25;;
45274;SDS011;31019;43.780;25.948;2024-01-15T10:16:37;59.63;;;56.22;;
45274;SDS011;31019;43.780;25.948;2024-01-15T10:19:07;60.05;;;56.55;;
45274;SDS011;31019;43.780;25.948;2024-01-15T10:21:36;57.90;;;54.50;;
45274;SDS011;31019;43.780;25.948;2024-01-15T10:24:03;66.18;;;62.38;;
45274;SDS011;31019;43.780;25.948;2024-01-15T10:26:32;61.97;;;58.38;;
45274;SDS011;31019;43.780;25.948;2024-01-15T10:28:59;47.38;;;44.40;;
45274;SDS011;31019;43.780;25.948;2024-01-15T10:31:26;47.55;;;44.58;;
45274;SDS011;31019;43.780;25.948;2024-01-15T10:33:53;63.35;;;59.25;;
45274;SDS011;31019;43.780;25.948;2024-01-15T10:36:22;59.25;;;55.55;;
45274;SDS011;31019;43.780;25.948;2024-01-15T10:38:49;59.83;;;56.13;;
45274;SDS011;31019;43.780;25.948;2024-01-15T10:41:15;65.90;;;62.00;;
45274;SDS011;31019;43.780;25.948;2024-01-15T10:43:44;64.63;;;60.72;;
45274;SDS011;31019;43.780;25.948;2024-01-15T10:46:11;58.33;;;54.83;;
45274;SDS011;31019;43.780;25.948;2024-01-15T10:48:38;48.35;;;45.45;;
45274;SDS011;31019;43.780;25.948;2024-01-15T10:51:06;59.97;;;56.58;;
45274;SDS011;31019;43.780;25.948;2024-01-15T10:53:36;75.93;;;71.32;;
45274;SDS011;31019;43.780;25.948;2024-01-15T10:56:06;79.00;;;74.20;;
45274;SDS011;31019;43.780;25.948;2024-01-15T10:58:33;79.10;;;74.30;;
45274;SDS011;31019;43.780;25.948;2024-01-15T11:01:03;68.03;;;64.32;;
45274;SDS011;31019;43.780;25.948;2024-01-15T11:03:31;44.90;;;41.67;;
45274;SDS011;31019;43.780;25.948;2024-01-15T11:05:58;64.80;;;60.95;;
45274;SDS011;31019;43.780;25.948;2024-01-15T11:08:28;64.10;;;60.22;;
45274;SDS011;31019;43.780;25.948;2024-01-15T11:10:55;77.30;;;72.90;;
45274;SDS011;31019;43.780;25.948;2024-01-15T11:13:39;78.28;;;73.47;;
45274;SDS011;31019;43.780;25.948;2024-01-15T11:16:09;88.82;;;83.53;;
45274;SDS011;31019;43.780;25.948;2024-01-15T11:18:37;59.97;;;56.63;;
45274;SDS011;31019;43.780;25.948;2024-01-15T11:21:24;51.58;;;48.47;;
45274;SDS011;31019;43.780;25.948;2024-01-15T11:23:53;69.88;;;65.53;;
45274;SDS011;31019;43.780;25.948;2024-01-15T11:26:29;88.85;;;83.55;;
45274;SDS011;31019;43.780;25.948;2024-01-15T11:28:57;78.43;;;73.38;;
45274;SDS011;31019;43.780;25.948;2024-01-15T11:31:28;70.22;;;66.13;;
45274;SDS011;31019;43.780;25.948;2024-01-15T11:33:55;79.63;;;75.03;;
45274;SDS011;31019;43.780;25.948;2024-01-15T11:39:41;62.05;;;58.45;;
45274;SDS011;31019;43.780;25.948;2024-01-15T11:42:11;47.28;;;44.28;;
45274;SDS011;31019;43.780;25.948;2024-01-15T11:44:40;45.80;;;42.92;;
45274;SDS011;31019;43.780;25.948;2024-01-15T11:47:11;46.38;;;43.83;;
45274;SDS011;31019;43.780;25.948;2024-01-15T11:52:30;46.28;;;43.67;;
45274;SDS011;31019;43.780;25.948;2024-01-15T11:55:00;49.65;;;46.95;;
45274;SDS011;31019;43.780;25.948;2024-01-15T11:57:40;71.43;;;67.13;;
45274;SDS011;31019;43.780;25.948;2024-01-15T12:00:08;70.93;;;66.53;;
45274;SDS011;31019;43.780;25.948;2024-01-15T12:02:38;81.15;;;76.70;;
45274;SDS011;31019;43.780;25.948;2024-01-15T12:05:09;81.63;;;77.03;;
45274;SDS011;31019;43.780;25.948;2024-01-15T12:07:37;86.63;;;82.13;;
45274;SDS011;31019;43.780;25.948;2024-01-15T12:10:08;80.97;;;75.38;;
45274;SDS011;31019;43.780;25.948;2024-01-15T12:15:24;50.83;;;47.63;;
45274;SDS011;31019;43.780;25.948;2024-01-15T12:17:53;72.95;;;68.85;;
45274;SDS011;31019;43.780;25.948;2024-01-15T12:20:22;83.28;;;77.72;;
45274;SDS011;31019;43.780;25.948;2024-01-15T12:22:50;87.72;;;82.82;;
45274;SDS011;31019;43.780;25.948;2024-01-15T12:25:17;105.05;;;98.10;;
45274;SDS011;31019;43.780;25.948;2024-01-15T12:27:44;79.60;;;74.35;;
45274;SDS011;31019;43.780;25.948;2024-01-15T12:30:11;43.05;;;40.05;;
45274;SDS011;31019;43.780;25.948;2024-01-15T12:32:40;41.45;;;38.45;;
45274;SDS011;31019;43.780;25.948;2024-01-15T12:35:09;40.97;;;38.08;;
45274;SDS011;31019;43.780;25.948;2024-01-15T12:37:39;37.67;;;34.88;;
45274;SDS011;31019;43.780;25.948;2024-01-15T12:40:07;43.88;;;36.13;;
45274;SDS011;31019;43.780;25.948;2024-01-15T12:42:39;38.28;;;35.47;;
45274;SDS011;31019;43.780;25.948;2024-01-15T12:45:07;39.75;;;36.75;;
45274;SDS011;31019;43.780;25.948;2024-01-15T12:47:35;38.25;;;35.55;;
45274;SDS011;31019;43.780;25.948;2024-01-15T12:50:05;31.85;;;29.55;;
45274;SDS011;31019;43.780;25.948;2024-01-15T12:52:34;33.70;;;31.20;;
45274;SDS011;31019;43.780;25.948;2024-01-15T12:55:03;37.67;;;34.88;;
45274;SDS011;31019;43.780;25.948;2024-01-15T12:57:30;34.45;;;32.05;;
45274;SDS011;31019;43.780;25.948;2024-01-15T12:59:57;53.00;;;49.60;;
45274;SDS011;31019;43.780;25.948;2024-01-15T13:02:24;34.13;;;31.58;;
45274;SDS011;31019;43.780;25.948;2024-01-15T13:04:51;29.83;;;27.63;;
45274;SDS011;31019;43.780;25.948;2024-01-15T13:07:19;33.60;;;31.20;;
45274;SDS011;31019;43.780;25.948;2024-01-15T13:09:50;30.85;;;28.55;;
45274;SDS011;31019;43.780;25.948;2024-01-15T13:12:18;32.30;;;30.00;;
45274;SDS011;31019;43.780;25.948;2024-01-15T13:14:46;33.97;;;31.02;;
45274;SDS011;31019;43.780;25.948;2024-01-15T13:17:13;31.20;;;29.10;;
45274;SDS011;31019;43.780;25.948;2024-01-15T13:19:40;31.10;;;28.92;;
45274;SDS011;31019;43.780;25.948;2024-01-15T13:22:07;30.88;;;28.52;;
45274;SDS011;31019;43.780;25.948;2024-01-15T13:24:34;33.80;;;31.20;;
45274;SDS011;31019;43.780;25.948;2024-01-15T13:27:03;31.98;;;29.58;;
45274;SDS011;31019;43.780;25.948;2024-01-15T13:29:31;32.60;;;30.38;;
45274;SDS011;31019;43.780;25.948;2024-01-15T13:31:58;32.85;;;30.45;;
45274;SDS011;31019;43.780;25.948;2024-01-15T13:34:26;35.08;;;32.58;;
45274;SDS011;31019;43.780;25.948;2024-01-15T13:36:53;35.35;;;32.85;;
45274;SDS011;31019;43.780;25.948;2024-01-15T13:39:19;30.63;;;28.33;;
45274;SDS011;31019;43.780;25.948;2024-01-15T13:41:46;28.83;;;26.42;;
45274;SDS011;31019;43.780;25.948;2024-01-15T13:44:15;31.73;;;29.15;;
45274;SDS011;31019;43.780;25.948;2024-01-15T13:46:43;27.33;;;25.42;;
45274;SDS011;31019;43.780;25.948;2024-01-15T13:49:09;28.40;;;26.08;;
45274;SDS011;31019;43.780;25.948;2024-01-15T13:51:36;28.13;;;26.02;;
45274;SDS011;31019;43.780;25.948;2024-01-15T13:54:03;27.40;;;25.40;;
45274;SDS011;31019;43.780;25.948;2024-01-15T13:56:30;30.13;;;28.13;;
45274;SDS011;31019;43.780;25.948;2024-01-15T13:58:57;28.20;;;26.20;;
45274;SDS011;31019;43.780;25.948;2024-01-15T14:01:26;27.02;;;25.00;;
45274;SDS011;31019;43.780;25.948;2024-01-15T14:03:53;28.40;;;26.00;;
45274;SDS011;31019;43.780;25.948;2024-01-15T14:06:20;30.70;;;28.30;;
45274;SDS011;31019;43.780;25.948;2024-01-15T14:08:47;29.48;;;27.38;;
45274;SDS011;31019;43.780;25.948;2024-01-15T14:11:14;26.17;;;24.27;;
45274;SDS011;31019;43.780;25.948;2024-01-15T14:13:41;26.75;;;24.85;;
45274;SDS011;31019;43.780;25.948;2024-01-15T14:16:08;29.20;;;27.00;;
45274;SDS011;31019;43.780;25.948;2024-01-15T14:18:38;28.55;;;26.55;;
45274;SDS011;31019;43.780;25.948;2024-01-15T14:21:05;28.55;;;26.52;;